Time;durP1;ratioP1;P1;durP2;ratioP2;P2;SDS_P1;SDS_P2;PMS_P1;PMS_P2;Temp;Humidity;BMP_temperature;BMP_pressure;BME280_temperature;BME280_humidity;BME280_pressure;Samples;Min_cycle;Max_cycle;Signal;HPM_P1;HPM_P2
2022/09/10 00:01:37;;;;;;;9.23;6.78;;;;;;;21.49;53.56;93799.22;4971263;28;20193;-79
2022/09/10 00:04:08;;;;;;;9.65;7.63;;;;;;;21.66;53.36;93809.34;4972374;28;20116;-80
2022/09/10 00:06:37;;;;;;;11.25;7.18;;;;;;;21.63;53.22;93812.81;4954545;28;20410;-80
2022/09/10 00:09:05;;;;;;;11.77;7.07;;;;;;;21.70;53.51;93838.00;4970711;28;20543;-81
2022/09/10 00:11:31;;;;;;;8.18;6.78;;;;;;;21.69;53.82;93836.44;4969834;28;20034;-80
2022/09/10 00:14:03;;;;;;;11.48;7.13;;;;;;;21.45;53.40;93786.47;4970114;28;20562;-79
2022/09/10 00:16:30;;;;;;;9.10;6.88;;;;;;;21.63;53.45;93820.94;4969219;28;20092;-80
2022/09/10 00:18:59;;;;;;;9.10;7.30;;;;;;;21.70;53.59;93820.97;4970976;28;20530;-80
2022/09/10 00:21:25;;;;;;;10.13;7.78;;;;;;;21.77;53.40;93829.09;4970094;28;20023;-79
2022/09/10 00:23:51;;;;;;;9.32;6.93;;;;;;;21.54;53.43;93805.03;4970420;28;20037;-80
2022/09/10 00:26:16;;;;;;;12.18;6.57;;;;;;;21.76;53.67;93828.31;4968840;28;20442;-81
2022/09/10 00:28:42;;;;;;;7.95;7.15;;;;;;;21.76;53.85;93828.31;4955125;28;20026;-81
2022/09/10 00:31:08;;;;;;;11.95;7.43;;;;;;;21.58;53.94;93803.16;4971092;28;20517;-80
2022/09/10 00:33:33;;;;;;;8.93;7.10;;;;;;;21.80;53.85;93831.06;4974591;28;20033;-80
2022/09/10 00:35:59;;;;;;;8.15;7.20;;;;;;;21.74;54.19;93832.56;4975899;28;20081;-79
2022/09/10 00:38:28;;;;;;;9.57;6.32;;;;;;;21.57;54.38;93803.53;4972327;28;20049;-80
2022/09/10 00:41:02;;;;;;;7.40;6.15;;;;;;;21.78;54.30;93834.13;4976586;28;20062;-79
2022/09/10 00:43:45;;;;;;;10.63;7.60;;;;;;;21.80;54.50;93834.50;4954474;28;20552;-80
2022/09/10 00:46:11;;;;;;;9.50;6.35;;;;;;;21.45;54.44;93791.88;4973519;28;20069;-80
2022/09/10 00:48:36;;;;;;;8.80;6.78;;;;;;;21.62;54.56;93805.84;4956693;28;20034;-81
2022/09/10 00:51:04;;;;;;;8.70;6.13;;;;;;;21.60;54.66;93810.88;4973951;28;20467;-79
2022/09/10 00:53:29;;;;;;;12.68;7.88;;;;;;;21.58;54.91;93803.16;4972579;28;20535;-81
2022/09/10 00:55:58;;;;;;;10.48;7.32;;;;;;;21.80;54.48;93831.06;4976513;28;20026;-79
2022/09/10 00:58:26;;;;;;;9.82;6.72;;;;;;;21.80;54.57;93820.22;4952545;28;20034;-80
2022/09/10 01:00:55;;;;;;;8.02;5.65;;;;;;;21.81;54.57;93832.56;4973317;28;20398;-79
2022/09/10 01:03:20;;;;;;;8.10;6.55;;;;;;;21.48;54.28;93776.03;4973064;28;20454;-81
2022/09/10 01:05:47;;;;;;;10.25;5.57;;;;;;;21.58;54.39;93791.53;4960521;28;20026;-79
2022/09/10 01:08:17;;;;;;;9.73;7.15;;;;;;;21.30;54.49;93751.63;4955611;28;20025;-81
2022/09/10 01:10:58;;;;;;;9.18;6.75;;;;;;;21.81;54.60;93827.94;4974270;28;20112;-79
2022/09/10 01:13:50;;;;;;;8.98;6.55;;;;;;;21.82;55.08;93824.09;4971090;28;20089;-80
2022/09/10 01:16:40;;;;;;;10.00;6.75;;;;;;;21.81;55.21;93827.16;4942463;28;20160;-79
2022/09/10 01:19:27;;;;;;;8.75;6.22;;;;;;;21.80;54.98;93820.22;4973112;28;20097;-79
2022/09/10 01:22:24;;;;;;;10.35;7.15;;;;;;;21.78;54.74;93811.69;4973347;28;20088;-79
2022/09/10 01:25:03;;;;;;;8.02;6.88;;;;;;;21.54;54.88;93777.22;4973010;28;20033;-80
2022/09/10 01:27:51;;;;;;;10.73;7.25;;;;;;;21.60;54.81;93781.13;4973994;28;20026;-79
2022/09/10 01:30:20;;;;;;;14.05;8.32;;;;;;;21.60;55.05;93789.25;4958079;28;20022;-79
2022/09/10 01:32:51;;;;;;;10.07;7.18;;;;;;;21.71;54.65;93795.44;4973917;28;20521;-79
2022/09/10 01:35:35;;;;;;;13.30;7.63;;;;;;;21.65;54.62;93781.53;4968689;28;20033;-78
2022/09/10 01:38:05;;;;;;;8.68;7.13;;;;;;;21.61;55.24;93785.38;4974171;28;20023;-80
2022/09/10 01:40:32;;;;;;;9.90;7.25;;;;;;;21.73;54.75;93814.78;4973641;28;20406;-79
2022/09/10 01:43:02;;;;;;;11.57;7.30;;;;;;;21.76;54.49;93800.47;4972213;28;20033;-79
2022/09/10 01:45:31;;;;;;;8.27;6.43;;;;;;;21.76;55.04;93797.75;4971661;28;20030;-80
2022/09/10 01:48:38;;;;;;;10.02;7.50;;;;;;;21.63;55.22;93778.41;4972827;28;20022;-79
2022/09/10 01:51:33;;;;;;;11.50;8.13;;;;;;;21.74;55.26;93800.09;4925218;28;20027;-80
2022/09/10 01:54:17;;;;;;;11.88;6.60;;;;;;;21.72;55.17;93807.81;4971471;28;20498;-79
2022/09/10 01:56:48;;;;;;;12.30;7.00;;;;;;;21.70;55.40;93815.56;4974206;28;20022;-79
2022/09/10 01:59:42;;;;;;;8.43;7.22;;;;;;;21.58;55.52;93795.03;4954137;28;20026;-80
2022/09/10 02:02:21;;;;;;;10.65;6.72;;;;;;;21.49;55.44;93796.53;4972403;28;20037;-79
2022/09/10 02:04:49;;;;;;;12.10;7.65;;;;;;;21.62;55.79;93819.38;4972596;28;20037;-80
2022/09/10 02:07:16;;;;;;;12.63;7.30;;;;;;;21.67;54.93;93817.09;4970978;28;20113;-79
2022/09/10 02:09:42;;;;;;;9.98;7.30;;;;;;;21.63;55.75;93815.53;4960911;28;20506;-79
2022/09/10 02:12:17;;;;;;;11.98;8.05;;;;;;;21.61;55.63;93818.59;4972346;28;20030;-81
2022/09/10 02:14:44;;;;;;;14.90;8.77;;;;;;;21.46;55.21;93785.28;4951850;28;20401;-80
2022/09/10 02:17:10;;;;;;;10.63;8.63;;;;;;;21.57;55.51;93798.09;4967699;28;20025;-79
2022/09/10 02:19:36;;;;;;;8.40;7.07;;;;;;;21.66;55.29;93812.03;4953076;28;20035;-79
2022/09/10 02:22:04;;;;;;;8.63;7.13;;;;;;;21.45;55.93;93791.88;4953717;28;20026;-80
2022/09/10 02:24:30;;;;;;;11.52;7.40;;;;;;;21.42;55.40;93784.50;4966780;28;20035;-80
2022/09/10 02:26:55;;;;;;;8.80;7.07;;;;;;;21.59;55.96;93801.22;4953009;28;20027;-79
2022/09/10 02:29:21;;;;;;;10.90;6.80;;;;;;;21.53;55.89;93791.88;4952534;28;20554;-78
2022/09/10 02:31:46;;;;;;;14.23;8.18;;;;;;;21.56;55.91;93800.03;4969012;28;20026;-79
2022/09/10 02:34:14;;;;;;;10.88;7.28;;;;;;;21.53;56.08;93797.28;4951554;28;20635;-78
2022/09/10 02:36:40;;;;;;;11.43;7.30;;;;;;;21.56;55.28;93804.69;4953899;28;20031;-80
2022/09/10 02:39:06;;;;;;;9.63;7.07;;;;;;;21.49;55.72;93810.03;4950904;28;20038;-79
2022/09/10 02:41:33;;;;;;;12.63;7.55;;;;;;;21.55;55.57;93820.16;4953307;28;20596;-81
2022/09/10 02:44:03;;;;;;;9.00;7.03;;;;;;;21.56;55.22;93826.34;4951024;28;20504;-79
2022/09/10 02:46:28;;;;;;;12.20;7.68;;;;;;;21.42;55.78;93808.84;4957161;28;20487;-80
2022/09/10 02:48:54;;;;;;;13.63;7.75;;;;;;;21.17;55.94;93764.72;4958547;28;20081;-79
2022/09/10 02:51:23;;;;;;;11.30;7.63;;;;;;;21.33;55.91;93789.50;4953239;28;20027;-79
2022/09/10 02:53:49;;;;;;;12.18;7.13;;;;;;;21.34;56.27;93804.59;4955420;28;20069;-80
2022/09/10 02:56:15;;;;;;;11.40;8.38;;;;;;;21.49;56.52;93829.00;4954466;28;20030;-81
2022/09/10 02:58:40;;;;;;;12.63;7.90;;;;;;;21.44;56.30;93820.09;4949282;28;20031;-79
2022/09/10 03:01:13;;;;;;;9.40;6.82;;;;;;;21.40;56.86;93818.53;4951719;28;20027;-81
2022/09/10 03:03:39;;;;;;;10.23;7.97;;;;;;;21.32;56.24;93806.88;4954871;28;20093;-79
2022/09/10 03:06:06;;;;;;;8.82;7.05;;;;;;;21.26;56.70;93796.84;4952025;28;20480;-79
2022/09/10 03:08:31;;;;;;;10.90;7.43;;;;;;;21.39;55.74;93812.34;4958444;28;20030;-80
2022/09/10 03:10:58;;;;;;;13.20;8.05;;;;;;;21.13;55.83;93777.44;4951844;28;20399;-79
2022/09/10 03:13:26;;;;;;;9.60;7.40;;;;;;;21.46;55.77;93833.25;4959204;28;20049;-79
2022/09/10 03:15:55;;;;;;;12.63;7.30;;;;;;;21.48;55.68;93813.91;4967922;28;20557;-79
2022/09/10 03:18:26;;;;;;;11.57;7.45;;;;;;;21.46;56.07;93822.41;4972072;28;20453;-80
2022/09/10 03:20:51;;;;;;;12.82;7.78;;;;;;;21.41;56.62;93811.97;4969137;28;20031;-80
2022/09/10 03:23:17;;;;;;;9.38;7.75;;;;;;;21.41;56.58;93809.25;4971418;28;20034;-79
2022/09/10 03:25:43;;;;;;;8.57;7.43;;;;;;;21.39;56.22;93811.56;4968090;28;20027;-79
2022/09/10 03:28:09;;;;;;;9.52;6.97;;;;;;;21.22;56.76;93779.78;4970299;28;20026;-81
2022/09/10 03:30:36;;;;;;;12.00;8.02;;;;;;;21.42;57.02;93816.19;4954410;28;20121;-81
2022/09/10 03:33:02;;;;;;;11.43;7.18;;;;;;;21.40;57.05;93802.28;4972561;28;20018;-79
2022/09/10 03:35:28;;;;;;;9.70;7.18;;;;;;;21.30;57.01;93784.88;4969953;28;20564;-80
2022/09/10 03:37:53;;;;;;;8.63;7.15;;;;;;;21.43;57.37;93802.28;4970843;28;20125;-79
2022/09/10 03:40:19;;;;;;;9.30;7.70;;;;;;;21.39;57.48;93809.63;4970389;28;20467;-79
2022/09/10 03:42:45;;;;;;;11.43;6.95;;;;;;;21.29;57.55;93790.66;4958923;28;20026;-79
2022/09/10 03:45:11;;;;;;;10.98;7.32;;;;;;;21.37;57.41;93806.53;4959005;28;20027;-80
2022/09/10 03:47:37;;;;;;;10.27;6.68;;;;;;;21.25;57.11;93779.84;4969926;28;20038;-79
2022/09/10 03:50:04;;;;;;;8.35;6.72;;;;;;;21.31;57.01;93783.72;4972585;28;20049;-80
2022/09/10 03:52:30;;;;;;;10.30;7.30;;;;;;;21.10;57.27;93761.22;4970033;28;20037;-79
2022/09/10 03:54:55;;;;;;;8.60;7.10;;;;;;;21.29;56.66;93788.72;4970936;28;20027;-80
2022/09/10 03:57:22;;;;;;;9.73;7.55;;;;;;;21.05;56.97;93743.44;4972616;28;20499;-80
2022/09/10 03:59:48;;;;;;;10.25;7.32;;;;;;;21.16;57.11;93762.41;4960344;28;20095;-80
2022/09/10 04:02:15;;;;;;;10.55;8.20;;;;;;;21.22;57.36;93788.69;4955297;28;20093;-78
2022/09/10 04:04:41;;;;;;;13.45;7.85;;;;;;;21.08;57.31;93779.75;4967999;28;20030;-79
2022/09/10 04:07:08;;;;;;;10.88;6.95;;;;;;;21.13;57.07;93782.84;4970992;28;20037;-79
2022/09/10 04:09:34;;;;;;;9.00;6.70;;;;;;;21.02;57.41;93772.00;4970529;28;20100;-80
2022/09/10 04:11:59;;;;;;;9.70;7.85;;;;;;;21.13;57.81;93788.28;4970990;28;20121;-79
2022/09/10 04:14:25;;;;;;;9.85;6.88;;;;;;;21.23;57.39;93806.47;4970050;28;20236;-79
2022/09/10 04:16:51;;;;;;;10.95;7.85;;;;;;;21.19;57.42;93800.28;4954862;28;20029;-80
2022/09/10 04:19:17;;;;;;;10.43;7.38;;;;;;;21.02;57.52;93773.94;4968960;28;20026;-79
2022/09/10 04:21:42;;;;;;;13.75;7.68;;;;;;;21.00;57.83;93782.44;4970752;28;20027;-80
2022/09/10 04:24:11;;;;;;;11.02;7.35;;;;;;;20.92;57.54;93766.56;4967862;28;20437;-80
2022/09/10 04:26:36;;;;;;;8.90;6.78;;;;;;;21.22;57.69;93812.25;4956642;28;20080;-79
2022/09/10 04:29:03;;;;;;;10.38;7.05;;;;;;;21.16;57.79;93819.97;4969115;28;20484;-80
2022/09/10 04:31:28;;;;;;;9.30;7.50;;;;;;;21.23;57.73;93828.09;4952965;28;20030;-80
2022/09/10 04:33:54;;;;;;;11.07;8.05;;;;;;;21.21;58.07;93816.91;4960448;28;20320;-79
2022/09/10 04:36:19;;;;;;;9.30;7.13;;;;;;;21.23;57.91;93830.81;4968895;28;20029;-79
2022/09/10 04:38:45;;;;;;;10.45;7.43;;;;;;;20.93;58.15;93768.09;4971449;28;20027;-79
2022/09/10 04:41:11;;;;;;;9.07;7.45;;;;;;;21.20;57.96;93815.34;4967127;28;20030;-79
2022/09/10 04:43:37;;;;;;;11.48;6.93;;;;;;;21.24;58.19;93820.78;4971162;28;20562;-80
2022/09/10 04:46:03;;;;;;;10.57;7.55;;;;;;;21.27;58.54;93820.78;4956131;28;20026;-80
2022/09/10 04:48:28;;;;;;;13.60;7.30;;;;;;;21.19;58.01;93802.97;4953984;28;20030;-80
2022/09/10 04:50:54;;;;;;;9.20;7.13;;;;;;;21.10;58.00;93775.53;4960553;28;20494;-80
2022/09/10 04:53:20;;;;;;;10.70;7.07;;;;;;;21.19;58.09;93786.75;4972319;28;20022;-79
2022/09/10 04:55:47;;;;;;;10.35;7.30;;;;;;;21.30;58.15;93803.81;4969253;28;20035;-79
2022/09/10 04:58:13;;;;;;;11.32;7.70;;;;;;;21.25;57.84;93789.88;4970730;28;20151;-79
2022/09/10 05:00:39;;;;;;;16.10;8.32;;;;;;;21.15;57.97;93769.75;4952520;28;20030;-78
2022/09/10 05:03:06;;;;;;;10.65;8.45;;;;;;;21.31;57.69;93804.59;4969163;28;20105;-79
2022/09/10 05:05:32;;;;;;;14.20;7.30;;;;;;;21.18;57.73;93789.84;4970012;28;20034;-78
2022/09/10 05:08:02;;;;;;;14.45;8.10;;;;;;;20.96;58.70;93751.91;4969285;28;20034;-80
2022/09/10 05:10:27;;;;;;;10.07;7.82;;;;;;;21.34;58.72;93796.47;4972590;28;20025;-79
2022/09/10 05:12:53;;;;;;;11.25;8.57;;;;;;;21.03;59.03;93760.03;4971124;28;20298;-80
2022/09/10 05:15:19;;;;;;;10.05;6.82;;;;;;;20.91;58.93;93749.56;4953659;28;20042;-80
2022/09/10 05:17:46;;;;;;;11.32;7.47;;;;;;;21.27;58.67;93804.56;4970209;28;20038;-80
2022/09/10 05:20:12;;;;;;;11.45;7.72;;;;;;;20.89;59.28;93745.69;4973327;28;20619;-80
2022/09/10 05:22:38;;;;;;;11.60;7.28;;;;;;;20.92;58.32;93744.94;4962833;28;20046;-78
2022/09/10 05:25:05;;;;;;;13.25;8.45;;;;;;;21.33;57.81;93804.97;4957704;28;20031;-81
2022/09/10 05:27:31;;;;;;;15.45;7.53;;;;;;;21.23;58.23;93803.75;4974431;28;20483;-78
2022/09/10 05:29:56;;;;;;;11.38;7.15;;;;;;;21.22;58.32;93798.72;4959559;28;20030;-78
2022/09/10 05:32:22;;;;;;;11.25;7.25;;;;;;;21.36;57.94;93817.75;4972994;28;20400;-78
2022/09/10 05:34:47;;;;;;;14.73;7.63;;;;;;;21.33;57.61;93813.84;4973390;28;20910;-81
2022/09/10 05:37:17;;;;;;;9.75;7.40;;;;;;;21.45;57.96;93818.94;4973426;28;21032;-79
2022/09/10 05:39:43;;;;;;;14.70;8.13;;;;;;;21.42;58.26;93813.50;4974074;28;20033;-79
2022/09/10 05:42:08;;;;;;;12.50;8.73;;;;;;;21.31;58.61;93789.13;4972104;28;20022;-80
2022/09/10 05:44:34;;;;;;;12.20;7.63;;;;;;;21.51;58.69;93818.56;4973300;28;20030;-80
2022/09/10 05:47:00;;;;;;;15.35;7.80;;;;;;;21.54;58.91;93823.97;4973458;28;20474;-79
2022/09/10 05:49:25;;;;;;;13.30;8.15;;;;;;;21.57;58.98;93819.75;4972923;28;20485;-79
2022/09/10 05:51:51;;;;;;;13.32;7.82;;;;;;;21.42;58.97;93791.84;4973539;28;20037;-80
2022/09/10 05:54:16;;;;;;;13.30;8.23;;;;;;;21.58;58.52;93821.31;4971318;28;20478;-79
2022/09/10 05:56:42;;;;;;;12.70;8.57;;;;;;;21.45;58.12;93791.88;4972105;28;20110;-79
2022/09/10 05:59:08;;;;;;;14.40;9.10;;;;;;;21.44;57.76;93793.03;4974283;28;20034;-80
2022/09/10 06:01:34;;;;;;;12.55;8.55;;;;;;;21.46;57.11;93776.44;4972852;28;20487;-80
2022/09/10 06:03:59;;;;;;;15.57;9.05;;;;;;;21.65;56.51;93794.28;4974055;28;20030;-79
2022/09/10 06:06:27;;;;;;;13.50;9.10;;;;;;;21.36;56.33;93742.75;4970936;28;20019;-80
2022/09/10 06:08:54;;;;;;;14.32;9.30;;;;;;;21.48;56.32;93760.56;4973617;28;20045;-80
2022/09/10 06:11:20;;;;;;;15.32;10.57;;;;;;;21.75;56.53;93807.84;4971107;28;20022;-79
2022/09/10 06:13:46;;;;;;;14.95;9.88;;;;;;;21.86;56.64;93814.03;4972745;28;20419;-79
2022/09/10 06:16:12;;;;;;;15.68;9.07;;;;;;;21.83;56.54;93819.44;4971567;28;20358;-80
2022/09/10 06:18:37;;;;;;;13.65;8.90;;;;;;;21.61;56.30;93783.44;4971689;28;20077;-80
2022/09/10 06:21:10;;;;;;;13.73;9.25;;;;;;;21.60;56.24;93775.72;4971340;28;20038;-81
2022/09/10 06:23:35;;;;;;;12.23;9.00;;;;;;;21.72;56.72;93818.63;4972194;28;20037;-79
2022/09/10 06:26:04;;;;;;;10.85;8.60;;;;;;;21.79;57.05;93818.66;4970849;28;20394;-79
2022/09/10 06:28:32;;;;;;;11.95;8.50;;;;;;;21.74;55.96;93805.50;4957466;28;20546;-81
2022/09/10 06:30:57;;;;;;;14.70;10.00;;;;;;;21.58;55.18;93791.53;4973780;28;20022;-79
2022/09/10 06:33:23;;;;;;;10.40;8.85;;;;;;;21.63;55.37;93797.38;4970974;28;20030;-80
2022/09/10 06:35:53;;;;;;;16.35;9.27;;;;;;;21.53;54.98;93789.97;4972367;28;20545;-81
2022/09/10 06:38:19;;;;;;;14.07;9.77;;;;;;;21.79;55.09;93824.09;4971331;28;20030;-81
2022/09/10 06:40:56;;;;;;;17.27;9.68;;;;;;;21.84;55.28;93826.41;4972749;28;20445;-79
2022/09/10 06:43:22;;;;;;;20.40;11.18;;;;;;;21.60;55.22;93786.53;4954835;28;20026;-79
2022/09/10 06:45:52;;;;;;;12.88;9.85;;;;;;;21.73;55.53;93793.91;4970641;28;20569;-80
2022/09/10 06:48:26;;;;;;;12.00;9.55;;;;;;;21.89;55.77;93796.25;4972966;28;20121;-78
2022/09/10 06:50:57;;;;;;;20.77;11.40;;;;;;;21.98;55.97;93798.59;4954665;28;20022;-79
2022/09/10 06:53:24;;;;;;;16.58;11.82;;;;;;;22.08;55.62;93808.66;4973259;28;20030;-81
2022/09/10 06:55:51;;;;;;;18.90;10.65;;;;;;;22.11;55.45;93808.66;4971934;28;20169;-79
2022/09/10 06:58:18;;;;;;;16.00;11.07;;;;;;;22.08;55.31;93804.00;4972743;28;20027;-79
2022/09/10 07:00:46;;;;;;;14.90;11.30;;;;;;;22.07;55.39;93807.09;4963048;28;20034;-79
2022/09/10 07:03:15;;;;;;;11.23;10.00;;;;;;;21.90;56.18;93762.63;4971439;28;20501;-79
2022/09/10 07:05:42;;;;;;;12.07;10.88;;;;;;;22.23;55.78;93805.59;4972401;28;20495;-79
2022/09/10 07:08:11;;;;;;;20.13;12.10;;;;;;;22.27;55.86;93809.06;4970630;28;20026;-79
2022/09/10 07:10:37;;;;;;;19.20;11.45;;;;;;;22.27;56.11;93803.66;4962417;28;20045;-79
2022/09/10 07:13:03;;;;;;;12.75;10.70;;;;;;;22.22;55.50;93792.44;4971724;28;20148;-80
2022/09/10 07:15:29;;;;;;;16.15;11.80;;;;;;;22.34;55.41;93794.00;4961781;28;20030;-79
2022/09/10 07:17:55;;;;;;;18.63;12.57;;;;;;;22.44;55.57;93812.94;4970791;28;20034;-80
2022/09/10 07:20:26;;;;;;;13.15;10.98;;;;;;;22.49;56.32;93812.53;4961264;28;20022;-79
2022/09/10 07:22:55;;;;;;;16.33;11.02;;;;;;;22.38;55.22;93786.63;4970163;28;20019;-80
2022/09/10 07:25:22;;;;;;;14.82;11.25;;;;;;;22.58;54.69;93806.75;4970342;28;20597;-81
2022/09/10 07:27:49;;;;;;;14.80;11.60;;;;;;;22.50;54.50;93788.94;4954323;28;20953;-80
2022/09/10 07:30:16;;;;;;;17.08;11.25;;;;;;;22.53;54.90;93786.22;4970439;28;20502;-81
2022/09/10 07:32:42;;;;;;;15.63;11.65;;;;;;;22.29;54.33;93739.00;4970017;28;20122;-78
2022/09/10 07:35:08;;;;;;;14.85;9.98;;;;;;;22.64;54.06;93808.66;4969563;28;20030;-79
2022/09/10 07:37:34;;;;;;;13.88;10.68;;;;;;;22.75;53.90;93803.22;4955771;28;20022;-80
2022/09/10 07:40:00;;;;;;;21.42;9.07;;;;;;;22.80;53.41;93802.06;4969866;28;20028;-78
2022/09/10 07:42:25;;;;;;;12.98;9.30;;;;;;;22.90;53.02;93812.13;4971907;28;20030;-78
2022/09/10 07:44:51;;;;;;;12.70;9.23;;;;;;;22.91;52.98;93805.56;4970191;28;20038;-79
2022/09/10 07:47:17;;;;;;;14.55;9.77;;;;;;;22.95;52.99;93807.09;4970183;28;20037;-78
2022/09/10 07:49:43;;;;;;;15.68;8.38;;;;;;;23.08;52.54;93816.34;4971093;28;20031;-81
2022/09/10 07:52:10;;;;;;;15.23;8.40;;;;;;;22.85;51.80;93772.59;4967191;28;20026;-79
2022/09/10 07:54:36;;;;;;;10.32;8.73;;;;;;;23.08;51.16;93805.50;4971081;28;20026;-80
2022/09/10 07:57:03;;;;;;;12.43;10.10;;;;;;;23.02;51.92;93809.03;4971936;28;20026;-80
2022/09/10 07:59:31;;;;;;;15.55;9.85;;;;;;;23.17;52.24;93813.97;4954616;28;20027;-81
2022/09/10 08:02:00;;;;;;;14.10;8.85;;;;;;;23.12;51.97;93795.41;4970339;28;20026;-80
2022/09/10 08:04:25;;;;;;;13.95;9.02;;;;;;;23.31;50.57;93817.84;4969105;28;20310;-80
2022/09/10 09:14:06;;;;;;;11.23;8.18;;;;;;;24.17;48.72;93789.09;4816480;28;20062;-82
2022/09/10 09:16:43;;;;;;;8.40;7.53;;;;;;;24.20;48.69;93788.31;4931990;28;20042;-81
2022/09/10 09:19:39;;;;;;;14.02;8.90;;;;;;;24.22;48.72;93785.94;4952317;28;20504;-81
2022/09/10 09:22:18;;;;;;;14.07;8.88;;;;;;;24.25;48.44;93777.75;4935205;28;20484;-80
2022/09/10 09:24:56;;;;;;;9.65;8.70;;;;;;;24.08;48.89;93750.69;4935872;28;20028;-81
2022/09/10 09:27:26;;;;;;;11.63;7.85;;;;;;;24.09;50.04;93752.25;4931816;28;20023;-83
2022/09/10 09:30:03;;;;;;;10.07;7.97;;;;;;;24.16;50.48;93763.06;4933844;28;20015;-80
2022/09/10 09:32:33;;;;;;;13.20;8.43;;;;;;;24.20;49.21;93752.97;4939144;28;20113;-82
2022/09/10 09:35:27;;;;;;;9.52;8.48;;;;;;;24.27;49.42;93756.38;4938559;28;20412;-80
2022/09/10 09:38:17;;;;;;;12.52;9.10;;;;;;;24.27;50.04;93755.63;4934734;28;20052;-81
2022/09/10 09:40:47;;;;;;;12.60;8.15;;;;;;;24.23;49.92;93741.28;4933658;28;20034;-79
2022/09/10 09:43:22;;;;;;;10.75;7.28;;;;;;;24.19;48.84;93724.25;4934169;28;20055;-80
2022/09/10 09:45:49;;;;;;;7.60;6.90;;;;;;;24.32;48.82;93733.44;4931846;28;20035;-81
2022/09/10 09:48:17;;;;;;;11.20;8.00;;;;;;;24.25;48.81;93717.19;4940701;28;20027;-80
2022/09/10 09:50:48;;;;;;;10.77;8.15;;;;;;;24.26;47.49;93711.38;4933281;28;20063;-80
2022/09/10 09:53:21;;;;;;;11.85;8.55;;;;;;;24.40;47.79;93718.59;4935111;28;20440;-80
2022/09/10 09:55:52;;;;;;;14.25;8.60;;;;;;;24.16;49.45;93676.13;4934978;28;20031;-81
2022/09/10 09:58:20;;;;;;;11.15;8.38;;;;;;;24.43;49.32;93718.59;4933704;28;20032;-81
2022/09/10 10:00:51;;;;;;;11.05;7.82;;;;;;;24.48;48.36;93709.22;4935115;28;20564;-80
2022/09/10 10:03:24;;;;;;;9.63;8.63;;;;;;;24.52;48.33;93704.53;4933399;28;20506;-80
2022/09/10 10:06:00;;;;;;;10.55;7.93;;;;;;;24.54;47.54;93699.44;4933249;28;20030;-82
2022/09/10 10:08:36;;;;;;;13.18;7.90;;;;;;;24.29;49.05;93669.03;4941903;28;20536;-79
2022/09/10 10:11:03;;;;;;;15.23;7.80;;;;;;;24.53;48.90;93695.19;4933560;28;20023;-80
2022/09/10 10:13:43;;;;;;;11.38;7.53;;;;;;;24.46;47.23;93670.78;4932627;28;20669;-81
2022/09/10 10:16:34;;;;;;;9.02;7.63;;;;;;;24.62;47.95;93681.13;4967814;28;21051;-80
2022/09/10 10:19:00;;;;;;;9.55;7.75;;;;;;;24.67;47.84;93681.44;4973221;28;20386;-79
2022/09/10 10:21:31;;;;;;;9.90;8.13;;;;;;;24.66;47.63;93666.31;4970878;28;20030;-81
2022/09/10 10:23:58;;;;;;;10.95;7.30;;;;;;;24.79;47.94;93678.22;4973069;28;20022;-82
2022/09/10 10:26:30;;;;;;;11.90;8.80;;;;;;;24.85;46.92;93679.31;4974111;28;20052;-80
2022/09/10 10:29:24;;;;;;;14.48;8.10;;;;;;;24.80;48.99;93660.72;4971786;28;20437;-81
2022/09/10 10:31:50;;;;;;;13.98;8.48;;;;;;;24.61;46.84;93625.97;4969678;28;20609;-80
2022/09/10 10:34:28;;;;;;;11.45;6.97;;;;;;;25.00;47.45;93655.44;4974631;28;20025;-80
2022/09/10 10:37:20;;;;;;;12.15;7.82;;;;;;;25.11;47.06;93668.91;4973218;28;20442;-80
2022/09/10 10:40:25;;;;;;;9.45;7.05;;;;;;;25.15;45.88;93677.78;4971368;28;20038;-81
2022/09/10 10:43:21;;;;;;;10.38;7.25;;;;;;;25.17;45.75;93675.44;4971133;28;20032;-81
2022/09/10 10:45:56;;;;;;;9.15;7.43;;;;;;;25.19;46.33;93675.78;4971818;28;20481;-80
2022/09/10 10:48:36;;;;;;;9.38;7.68;;;;;;;25.25;44.99;93663.25;4972821;28;20398;-80
2022/09/10 10:51:13;;;;;;;10.52;6.97;;;;;;;25.28;45.52;93652.31;4955159;28;20046;-80
2022/09/10 10:54:13;;;;;;;13.30;7.20;;;;;;;25.06;45.15;93601.34;4971778;28;20031;-80
2022/09/10 10:56:54;;;;;;;13.95;8.13;;;;;;;25.42;46.50;93637.00;4971857;28;20113;-80
2022/09/10 11:00:27;;;;;;;9.82;7.65;;;;;;;25.50;44.75;93638.44;4956285;28;20394;-79
2022/09/10 11:03:13;;;;;;;11.45;7.25;;;;;;;25.51;44.76;93632.59;4897885;29;20130;-81
2022/09/10 11:05:46;;;;;;;10.88;7.53;;;;;;;25.52;44.92;93631.38;4919829;29;20066;-80
2022/09/10 11:08:50;;;;;;;7.03;5.87;;;;;;;25.48;44.47;93606.16;4963920;28;20627;-80
2022/09/10 11:11:32;;;;;;;7.43;6.20;;;;;;;25.58;44.24;93627.03;4927600;28;20105;-80
2022/09/10 11:14:24;;;;;;;12.45;7.18;;;;;;;25.65;44.11;93642.47;4960728;28;20027;-80
2022/09/10 11:16:54;;;;;;;8.55;5.75;;;;;;;25.60;43.43;93645.69;4971338;28;20042;-81
2022/09/10 11:19:41;;;;;;;14.88;6.60;;;;;;;25.05;45.54;93675.97;4956237;28;20037;-79
2022/09/10 11:22:17;;;;;;;2.72;2.05;;;;;;;24.58;44.38;93681.16;4953233;28;20475;-79
2022/09/10 11:24:59;;;;;;;7.75;2.10;;;;;;;23.82;44.91;93679.50;4955131;28;20045;-79
2022/09/10 11:27:38;;;;;;;3.47;1.90;;;;;;;23.66;46.17;93730.81;4970000;28;20027;-79
2022/09/10 11:30:05;;;;;;;7.35;2.33;;;;;;;23.61;46.65;93755.69;4956547;28;20426;-80
2022/09/10 11:32:46;;;;;;;6.03;2.20;;;;;;;23.64;49.60;93749.44;4973005;28;20101;-80
2022/09/10 11:35:32;;;;;;;5.07;2.47;;;;;;;23.57;51.34;93752.19;4972317;28;20065;-80
2022/09/10 11:38:13;;;;;;;7.15;2.17;;;;;;;23.41;51.21;93730.19;4972701;28;20034;-79
2022/09/10 11:41:03;;;;;;;5.57;2.50;;;;;;;23.28;51.40;93715.50;4953785;28;20057;-81
2022/09/10 11:43:42;;;;;;;4.70;2.80;;;;;;;23.38;51.29;93709.25;4954591;28;20034;-80
2022/09/10 11:46:13;;;;;;;4.90;3.15;;;;;;;23.38;51.91;93710.03;4970814;28;20018;-81
2022/09/10 11:48:49;;;;;;;6.05;2.45;;;;;;;23.40;51.90;93721.25;4971539;28;20899;-79
2022/09/10 11:51:38;;;;;;;7.13;3.15;;;;;;;23.21;52.14;93685.72;4956202;28;20018;-79
2022/09/10 11:54:13;;;;;;;3.85;2.88;;;;;;;23.35;52.41;93699.19;4970009;28;20023;-81
2022/09/10 11:56:51;;;;;;;5.30;2.47;;;;;;;23.25;53.42;93691.88;4971595;28;20066;-79
2022/09/10 11:59:34;;;;;;;9.85;2.90;;;;;;;22.70;54.92;93665.38;4972418;28;20018;-80
2022/09/10 12:02:31;;;;;;;6.75;3.55;;;;;;;23.10;55.73;93716.38;4970051;28;20089;-80
2022/09/10 12:05:37;;;;;;;7.65;3.72;;;;;;;23.00;57.42;93724.56;4970469;28;20027;-81
2022/09/10 12:08:16;;;;;;;6.40;3.58;;;;;;;22.90;57.21;93719.94;4966845;28;20034;-80
2022/09/10 12:10:56;;;;;;;8.43;2.80;;;;;;;22.66;58.43;93718.81;4972686;28;20134;-80
2022/09/10 12:13:22;;;;;;;5.03;2.63;;;;;;;22.69;58.64;93705.25;4969842;28;20022;-78
2022/09/10 12:15:55;;;;;;;3.95;3.00;;;;;;;22.35;59.70;93651.94;4969854;28;20053;-81
2022/09/10 12:18:43;;;;;;;6.47;2.88;;;;;;;22.66;59.62;93681.66;4970015;28;20155;-81
2022/09/10 12:21:33;;;;;;;7.10;4.05;;;;;;;22.69;60.24;93664.59;4969731;28;20358;-81
2022/09/10 12:24:22;;;;;;;5.43;3.08;;;;;;;22.81;61.24;93684.31;4969902;28;20037;-79
2022/09/10 12:26:48;;;;;;;7.57;3.63;;;;;;;22.76;62.70;93669.22;4952704;28;20112;-79
2022/09/10 12:29:28;;;;;;;6.25;3.70;;;;;;;22.79;62.90;93663.00;4958671;28;20081;-79
2022/09/10 12:32:06;;;;;;;8.25;4.30;;;;;;;22.77;62.46;93665.34;4971567;28;20391;-79
2022/09/10 12:34:32;;;;;;;4.50;3.55;;;;;;;22.65;63.78;93646.81;4971564;28;20018;-79
2022/09/10 12:36:57;;;;;;;8.50;3.65;;;;;;;22.75;64.11;93648.69;4969661;28;20034;-78
2022/09/10 12:39:25;;;;;;;4.63;3.90;;;;;;;22.68;63.85;93627.81;4969216;28;20026;-80
2022/09/10 12:41:50;;;;;;;5.22;3.65;;;;;;;22.84;63.34;93638.19;4954416;28;20034;-79
2022/09/10 12:44:33;;;;;;;5.70;3.45;;;;;;;22.93;62.46;93635.06;4972614;28;20394;-80
2022/09/10 12:47:14;;;;;;;6.20;4.68;;;;;;;22.70;62.83;93628.19;4970399;28;20030;-80
2022/09/10 12:49:56;;;;;;;6.25;4.70;;;;;;;22.70;64.04;93632.84;4970895;28;20030;-81
2022/09/10 12:52:31;;;;;;;5.90;4.57;;;;;;;22.78;65.31;93628.19;4962030;28;20034;-79
2022/09/10 12:55:03;;;;;;;7.32;4.80;;;;;;;22.86;65.25;93603.38;4973654;28;20022;-79